New Ulm, MN

3:08 PM CDT on March 27, 2017 (GMT -0500)
New Ulm Municipal

Weather History for KULM - September, 2012

Change the Weather History Date:

Monday, September 24, 2012

  Actual Average Record
Temperature  
Mean Temperature 58 °F -  
Max Temperature 80 °F 69 °F 89 °F (1958)
Min Temperature 37 °F 44 °F 3 °F (1997)
Degree Days  
Heating Degree Days 6    
Growing Degree Days 8 (Base 50)    
Moisture  
Dew Point 30 °F    
Average Humidity 38    
Maximum Humidity 65    
Minimum Humidity 15    
Precipitation  
Precipitation 0.00 in - - ()
Sea Level Pressure  
Sea Level Pressure 29.92 in    
Wind  
Wind Speed 9 mph (SW)    
Max Wind Speed 24 mph    
Max Gust Speed 33 mph    
Visibility 10 miles    
Events      
Averages and records for this station are not official NWS values.
T = Trace of Precipitation, MM = Missing Value Source: NWS Daily Summary

Daily Weather History Graph

Daily Weather History Graph

Search for Another Location

Airport or City:

Trip Planner

Search our weather history database for the weather conditions in past years. The results will help you decide how hot, cold, wet, or windy it might be!

Date:

Astronomy

Sep. 24, 2012 Rise Set
Actual Time 7:08 AM CDT 7:10 PM CDT
Civil Twilight 6:39 AM CDT 7:39 PM CDT
Nautical Twilight 6:05 AM CDT 8:13 PM CDT
Astronomical Twilight 5:30 AM CDT 8:47 PM CDT
Moon 4:07 PM CDT (9/24) 1:14 AM CDT (9/24)
Length of Visible Light 13h 00m
Length of Day
12h 02m
Waxing Gibbous, 71% of the Moon is Illuminated
Sep 24
Waxing Gibbous
Sep 29
Full
Oct 8
Last Quarter
Oct 15
New
Oct 21
First Quarter

Hourly Weather History & Observations

Time (CDT) Temp. Windchill Dew Point Humidity Pressure Visibility Wind Dir Wind Speed Gust Speed Precip Events Conditions
12:13 AM 39.2 °F 35.0 °F 26.6 °F 61% 30.16 in 10.0 mi South 5.8 mph - N/A   Clear
12:32 AM 41.0 °F 36.4 °F 26.6 °F 57% 30.16 in 10.0 mi South 6.9 mph - N/A   Clear
12:53 AM 41.0 °F 38.0 °F 26.6 °F 57% 30.16 in 10.0 mi South 4.6 mph - N/A   Clear
1:13 AM 41.0 °F 37.1 °F 26.6 °F 57% 30.15 in 10.0 mi South 5.8 mph - N/A   Clear
1:32 AM 42.8 °F 39.3 °F 26.6 °F 53% 30.15 in 10.0 mi South 5.8 mph - N/A   Clear
1:53 AM 41.0 °F 36.4 °F 26.6 °F 57% 30.14 in 10.0 mi SSW 6.9 mph - N/A   Clear
2:13 AM 41.0 °F 38.0 °F 26.6 °F 57% 30.14 in 10.0 mi SSW 4.6 mph - N/A   Clear
2:33 AM 42.8 °F 38.6 °F 26.6 °F 53% 30.13 in 10.0 mi SSW 6.9 mph - N/A   Clear
2:53 AM 42.8 °F 38.6 °F 26.6 °F 53% 30.11 in 10.0 mi SSW 6.9 mph - N/A   Clear
3:13 AM 42.8 °F 38.0 °F 26.6 °F 53% 30.10 in 10.0 mi SSW 8.1 mph - N/A   Clear
3:33 AM 41.0 °F 35.8 °F 26.6 °F 57% 30.09 in 10.0 mi SSW 8.1 mph - N/A   Clear
3:53 AM 41.0 °F 36.4 °F 26.6 °F 57% 30.09 in 10.0 mi SSW 6.9 mph - N/A   Clear
4:13 AM 42.8 °F 38.6 °F 26.6 °F 53% 30.08 in 10.0 mi SSW 6.9 mph - N/A   Clear
4:33 AM 42.8 °F 39.3 °F 26.6 °F 53% 30.08 in 10.0 mi SSW 5.8 mph - N/A   Clear
4:53 AM 42.8 °F 39.3 °F 26.6 °F 53% 30.07 in 10.0 mi SSW 5.8 mph - N/A   Clear
5:13 AM 41.0 °F 38.0 °F 26.6 °F 57% 30.06 in 10.0 mi South 4.6 mph - N/A   Clear
5:33 AM 39.2 °F 35.9 °F 26.6 °F 61% 30.06 in 10.0 mi South 4.6 mph - N/A   Clear
5:53 AM 37.4 °F 33.8 °F 26.6 °F 65% 30.04 in 10.0 mi SSE 4.6 mph - N/A   Clear
6:13 AM 39.2 °F 35.0 °F 26.6 °F 61% 30.03 in 10.0 mi South 5.8 mph - N/A   Clear
6:33 AM 39.2 °F 34.2 °F 28.4 °F 65% 30.02 in 10.0 mi South 6.9 mph - N/A   Clear
6:53 AM 39.2 °F 33.6 °F 28.4 °F 65% 30.02 in 10.0 mi SSE 8.1 mph - N/A   Clear
7:12 AM 39.2 °F 33.0 °F 28.4 °F 65% 30.01 in 10.0 mi South 9.2 mph - N/A   Clear
7:33 AM 41.0 °F 35.8 °F 28.4 °F 61% 30.01 in 10.0 mi South 8.1 mph - N/A   Clear
7:53 AM 42.8 °F 38.0 °F 28.4 °F 57% 30.00 in 10.0 mi South 8.1 mph - N/A   Clear
8:12 AM 44.6 °F 40.7 °F 30.2 °F 57% 29.99 in 10.0 mi South 6.9 mph - N/A   Clear
8:33 AM 46.4 °F 42.4 °F 30.2 °F 53% 29.99 in 10.0 mi South 8.1 mph - N/A   Clear
8:53 AM 50.0 °F - 32.0 °F 50% 29.98 in 10.0 mi SSW 10.4 mph 17.3 mph N/A   Clear
9:12 AM 53.6 °F - 33.8 °F 47% 29.97 in 10.0 mi SSW 12.7 mph - N/A   Clear
9:53 AM 62.6 °F - 33.8 °F 34% 29.95 in 10.0 mi WSW 15.0 mph 21.9 mph N/A   Clear
10:13 AM 66.2 °F - 30.2 °F 26% 29.94 in 10.0 mi WSW 20.7 mph 24.2 mph N/A   Clear
10:33 AM 66.2 °F - 30.2 °F 26% 29.93 in 10.0 mi WSW 16.1 mph 26.5 mph N/A   Clear
10:53 AM 69.8 °F - 30.2 °F 23% 29.92 in 10.0 mi WSW 20.7 mph 31.1 mph N/A   Clear
11:13 AM 71.6 °F - 30.2 °F 22% 29.91 in 10.0 mi WSW 21.9 mph 31.1 mph N/A   Clear
11:33 AM 71.6 °F - 30.2 °F 22% 29.90 in 10.0 mi WSW 23.0 mph 28.8 mph N/A   Clear
11:53 AM 73.4 °F - 30.2 °F 20% 29.90 in 10.0 mi WSW 24.2 mph 29.9 mph N/A   Clear
12:13 PM 73.4 °F - 30.2 °F 20% 29.89 in 10.0 mi West 23.0 mph 33.4 mph N/A   Clear
12:33 PM 75.2 °F - 30.2 °F 19% 29.89 in 10.0 mi West 19.6 mph 25.3 mph N/A   Clear
12:53 PM 73.4 °F - 30.2 °F 20% 29.88 in 10.0 mi West 20.7 mph 28.8 mph N/A   Clear
1:13 PM 75.2 °F - 32.0 °F 21% 29.88 in 10.0 mi West 16.1 mph 25.3 mph N/A   Clear
1:33 PM 77.0 °F - 32.0 °F 19% 29.86 in 10.0 mi West 18.4 mph 24.2 mph N/A   Clear
1:53 PM 77.0 °F - 32.0 °F 19% 29.85 in 10.0 mi West 19.6 mph 26.5 mph N/A   Clear
2:13 PM 78.8 °F - 32.0 °F 18% 29.85 in 10.0 mi West 16.1 mph 24.2 mph N/A   Clear
2:33 PM 78.8 °F - 32.0 °F 18% 29.84 in 10.0 mi West 17.3 mph 21.9 mph N/A   Clear
2:52 PM 78.8 °F - 32.0 °F 18% 29.83 in 10.0 mi West 15.0 mph 25.3 mph N/A   Clear
3:13 PM 78.8 °F - 32.0 °F 18% 29.82 in 10.0 mi West 10.4 mph 23.0 mph N/A   Clear
3:33 PM 78.8 °F - 30.2 °F 17% 29.80 in 10.0 mi West 17.3 mph 24.2 mph N/A   Clear
3:52 PM 78.8 °F - 30.2 °F 17% 29.79 in 10.0 mi West 16.1 mph 23.0 mph N/A   Clear
4:13 PM 80.6 °F - 30.2 °F 16% 29.79 in 10.0 mi West 15.0 mph 20.7 mph N/A   Clear
4:33 PM 80.6 °F - 30.2 °F 16% 29.78 in 10.0 mi West 15.0 mph 23.0 mph N/A   Clear
4:53 PM 80.6 °F - 30.2 °F 16% 29.78 in 10.0 mi West 15.0 mph - N/A   Clear
5:13 PM 80.6 °F - 28.4 °F 15% 29.77 in 10.0 mi West 13.8 mph 20.7 mph N/A   Clear
5:33 PM 80.6 °F - 30.2 °F 16% 29.77 in 10.0 mi West 13.8 mph - N/A   Clear
5:53 PM 78.8 °F - 28.4 °F 16% 29.77 in 10.0 mi West 10.4 mph 17.3 mph N/A   Clear
6:13 PM 78.8 °F - 28.4 °F 16% 29.77 in 10.0 mi West 10.4 mph - N/A   Clear
6:53 PM 73.4 °F - 30.2 °F 20% 29.77 in 10.0 mi West 5.8 mph - N/A   Clear
7:13 PM 69.8 °F - 32.0 °F 25% 29.77 in 10.0 mi West 5.8 mph - N/A   Clear
7:33 PM 66.2 °F - 32.0 °F 28% 29.78 in 10.0 mi West 4.6 mph - N/A   Clear
7:53 PM 66.2 °F - 33.8 °F 30% 29.78 in 10.0 mi WSW 3.5 mph - N/A   Clear
8:13 PM 66.2 °F - 33.8 °F 30% 29.78 in 10.0 mi WSW 5.8 mph - N/A   Clear
8:33 PM 64.4 °F - 33.8 °F 32% 29.78 in 10.0 mi WSW 4.6 mph - N/A   Clear
8:53 PM 62.6 °F - 33.8 °F 34% 29.78 in 10.0 mi WSW 4.6 mph - N/A   Clear
9:13 PM 62.6 °F - 35.6 °F 37% 29.78 in 10.0 mi WSW 5.8 mph - N/A   Clear
9:32 PM 62.6 °F - 35.6 °F 37% 29.78 in 10.0 mi WSW 5.8 mph - N/A   Clear
9:53 PM 60.8 °F - 35.6 °F 39% 29.79 in 10.0 mi WSW 6.9 mph - N/A   Clear
10:13 PM 59.0 °F - 35.6 °F 42% 29.79 in 10.0 mi WSW 6.9 mph - N/A   Clear
10:32 PM 57.2 °F - 37.4 °F 48% 29.79 in 10.0 mi WSW 5.8 mph - N/A   Clear
10:53 PM 57.2 °F - 37.4 °F 48% 29.79 in 10.0 mi WSW 5.8 mph - N/A   Clear
11:13 PM 57.2 °F - 37.4 °F 48% 29.79 in 10.0 mi West 4.6 mph - N/A   Clear
11:53 PM 55.4 °F - 37.4 °F 51% 29.79 in 10.0 mi West 5.8 mph - N/A   Clear